createdAt,value
2017-12-10T00:00:41.196Z,-3.50
2017-12-10T00:03:08.719Z,-3.50
2017-12-10T00:05:36.179Z,-3.50
2017-12-10T00:08:03.694Z,-3.60
2017-12-10T00:10:31.179Z,-3.60
2017-12-10T00:12:58.690Z,-3.50
2017-12-10T00:15:26.939Z,-3.70
2017-12-10T00:17:54.429Z,-3.60
2017-12-10T00:20:21.930Z,-3.70
2017-12-10T00:22:49.399Z,-3.70
2017-12-10T00:25:17.675Z,-3.90
2017-12-10T00:27:45.150Z,-3.90
2017-12-10T00:30:12.664Z,-3.80
2017-12-10T00:32:40.159Z,-3.70
2017-12-10T00:35:07.619Z,-3.70
2017-12-10T00:37:35.118Z,-3.70
2017-12-10T00:40:02.588Z,-3.80
2017-12-10T00:42:30.087Z,-3.80
2017-12-10T00:44:57.580Z,-3.90
2017-12-10T00:47:25.843Z,-3.80
2017-12-10T00:49:54.094Z,-3.90
2017-12-10T00:52:21.566Z,-3.90
2017-12-10T00:54:49.843Z,-4.10
2017-12-10T00:57:17.304Z,-4.10
2017-12-10T00:59:44.810Z,-4.00
2017-12-10T01:02:12.309Z,-4.30
2017-12-10T01:04:39.775Z,-4.20
2017-12-10T01:07:07.271Z,-4.10
2017-12-10T01:09:35.514Z,-4.00
2017-12-10T01:12:02.991Z,-4.00
2017-12-10T01:14:31.249Z,-4.10
2017-12-10T01:16:58.736Z,-4.10
2017-12-10T01:19:27.000Z,-4.10
2017-12-10T01:21:55.243Z,-4.00
2017-12-10T01:24:22.771Z,-4.00
2017-12-10T01:26:50.250Z,-3.90
2017-12-10T01:29:17.730Z,-3.90
2017-12-10T01:31:45.227Z,-3.90
2017-12-10T01:34:12.692Z,-3.90
2017-12-10T01:36:40.205Z,-3.90
2017-12-10T01:39:07.684Z,-4.00
2017-12-10T01:41:35.924Z,-4.10
2017-12-10T01:44:03.437Z,-4.10
2017-12-10T01:46:30.903Z,-4.10
2017-12-10T01:48:58.424Z,-4.10
2017-12-10T01:51:25.940Z,-4.20
2017-12-10T01:53:53.417Z,-4.20
2017-12-10T01:56:20.901Z,-4.30
2017-12-10T01:58:48.471Z,-4.30
2017-12-10T02:01:16.729Z,-4.10
2017-12-10T02:03:44.226Z,-4.20
2017-12-10T02:06:12.495Z,-4.30
2017-12-10T02:08:40.777Z,-4.30
2017-12-10T02:11:09.039Z,-4.30
2017-12-10T02:13:36.487Z,-4.30
2017-12-10T02:16:03.988Z,-4.40
2017-12-10T02:18:31.502Z,-4.50
2017-12-10T02:20:58.975Z,-4.50
2017-12-10T02:23:27.211Z,-4.40
2017-12-10T02:25:54.715Z,-4.50
2017-12-10T02:28:22.945Z,-4.90
2017-12-10T02:30:50.420Z,-4.90
2017-12-10T02:33:18.802Z,-4.90
2017-12-10T02:35:46.263Z,-4.80
2017-12-10T02:38:13.771Z,-4.90
2017-12-10T02:40:41.271Z,-4.90
2017-12-10T02:43:08.768Z,-5.00
2017-12-10T02:45:37.000Z,-5.00
2017-12-10T02:48:04.479Z,-5.10
2017-12-10T02:50:31.979Z,-4.90
2017-12-10T02:52:59.442Z,-4.90
2017-12-10T02:55:32.867Z,-4.90
2017-12-10T02:58:00.361Z,-5.00
2017-12-10T03:00:27.886Z,-5.40
2017-12-10T03:02:55.383Z,-5.20
2017-12-10T03:05:22.863Z,-5.50
2017-12-10T03:07:50.379Z,-5.30
2017-12-10T03:10:17.835Z,-5.30
2017-12-10T03:12:45.335Z,-5.20
2017-12-10T03:15:12.984Z,-5.20
2017-12-10T03:17:41.268Z,-5.40
2017-12-10T03:20:09.533Z,-5.40
2017-12-10T03:22:37.770Z,-5.50
2017-12-10T03:25:05.291Z,-5.50
2017-12-10T03:27:32.771Z,-5.40
2017-12-10T03:30:00.332Z,-5.40
2017-12-10T03:32:27.794Z,-5.50
2017-12-10T03:34:55.271Z,-5.50
2017-12-10T03:37:22.793Z,-5.40
2017-12-10T03:39:50.270Z,-5.40
2017-12-10T03:42:17.792Z,-5.40
2017-12-10T03:44:46.048Z,-5.60
2017-12-10T03:47:13.542Z,-5.60
2017-12-10T03:49:41.076Z,-5.80
2017-12-10T03:52:08.531Z,-6.00
2017-12-10T03:54:36.803Z,-6.10
2017-12-10T03:57:04.292Z,-6.10
2017-12-10T03:59:32.561Z,-5.80
2017-12-10T04:02:00.815Z,-6.00
2017-12-10T04:04:28.279Z,-6.00
2017-12-10T04:06:56.525Z,-5.90
2017-12-10T04:09:24.031Z,-5.90
2017-12-10T04:11:52.320Z,-6.30
2017-12-10T04:14:20.691Z,-6.40
2017-12-10T04:16:48.180Z,-6.20
2017-12-10T04:19:15.681Z,-6.10
2017-12-10T04:21:43.168Z,-6.00
2017-12-10T04:24:10.650Z,-6.10
2017-12-10T04:26:38.140Z,-6.10
2017-12-10T04:29:05.606Z,-6.30
2017-12-10T04:31:33.118Z,-6.10
2017-12-10T04:34:00.581Z,-6.00
2017-12-10T04:36:28.890Z,-6.00
2017-12-10T04:38:56.343Z,-6.00
2017-12-10T04:41:23.827Z,-6.50
2017-12-10T04:43:51.319Z,-6.40
2017-12-10T04:46:18.792Z,-6.50
2017-12-10T04:48:46.254Z,-6.70
2017-12-10T04:51:13.759Z,-6.50
2017-12-10T04:53:41.215Z,-6.50
2017-12-10T04:56:08.735Z,-6.50
2017-12-10T04:58:36.198Z,-6.50
2017-12-10T05:01:03.678Z,-6.50
2017-12-10T05:03:31.187Z,-6.50
2017-12-10T05:05:58.672Z,-6.40
2017-12-10T05:08:26.183Z,-6.30
2017-12-10T05:10:54.424Z,-6.70
2017-12-10T05:13:21.902Z,-6.70
2017-12-10T05:15:49.399Z,-6.80
2017-12-10T05:18:16.874Z,-6.80
2017-12-10T05:20:45.271Z,-6.50
2017-12-10T05:23:12.732Z,-6.30
2017-12-10T05:25:40.272Z,-6.30
2017-12-10T05:28:07.760Z,-6.20
2017-12-10T05:30:35.234Z,-6.20
2017-12-10T05:33:02.739Z,-6.30
2017-12-10T05:35:30.203Z,-6.20
2017-12-10T05:37:57.703Z,-6.10
2017-12-10T05:40:26.682Z,-6.10
2017-12-10T05:42:54.152Z,-6.10
2017-12-10T05:45:21.670Z,-6.00
2017-12-10T05:47:49.133Z,-5.80
2017-12-10T05:50:16.651Z,-5.80
2017-12-10T05:52:44.891Z,-5.80
2017-12-10T05:55:12.429Z,-5.80
2017-12-10T05:57:39.914Z,-5.70
2017-12-10T06:00:07.404Z,-5.60
2017-12-10T06:02:34.901Z,-5.70
2017-12-10T06:05:02.373Z,-5.70
2017-12-10T06:07:29.892Z,-5.60
2017-12-10T06:09:58.139Z,-5.70
2017-12-10T06:12:25.627Z,-5.70
2017-12-10T06:14:53.927Z,-5.50
2017-12-10T06:17:21.403Z,-5.50
2017-12-10T06:19:48.900Z,-5.60
2017-12-10T06:22:16.366Z,-5.60
2017-12-10T06:24:43.871Z,-5.40
2017-12-10T06:27:11.371Z,-5.30
2017-12-10T06:29:38.891Z,-5.30
2017-12-10T06:32:06.389Z,-5.30
2017-12-10T06:34:33.862Z,-5.30
2017-12-10T06:37:02.140Z,-5.30
2017-12-10T06:39:29.601Z,-5.30
2017-12-10T06:41:57.858Z,-5.20
2017-12-10T06:44:25.381Z,-5.20
2017-12-10T06:46:52.881Z,-5.20
2017-12-10T06:49:20.358Z,-5.30
2017-12-10T06:51:48.618Z,-5.10
2017-12-10T06:54:16.131Z,-5.10
2017-12-10T06:56:43.603Z,-5.30
2017-12-10T06:59:11.107Z,-5.20
2017-12-10T07:01:39.351Z,-5.30
2017-12-10T07:04:06.848Z,-5.30
2017-12-10T07:06:35.082Z,-5.30
2017-12-10T07:09:02.630Z,-5.30
2017-12-10T07:11:30.104Z,-5.10
2017-12-10T07:13:57.787Z,-5.00
2017-12-10T07:16:25.298Z,-4.90
2017-12-10T07:18:52.807Z,-4.90
2017-12-10T07:21:20.283Z,-4.90
2017-12-10T07:23:48.534Z,-4.80
2017-12-10T07:26:16.035Z,-4.90
2017-12-10T07:28:43.527Z,-4.80
2017-12-10T07:31:11.063Z,-4.80
2017-12-10T07:33:38.544Z,-4.90
2017-12-10T07:36:06.075Z,-5.00
2017-12-10T07:38:33.550Z,-4.90
2017-12-10T07:41:01.366Z,-4.90
2017-12-10T07:43:29.640Z,-2.30
2017-12-10T07:45:57.151Z,-2.30
2017-12-10T07:48:24.685Z,-2.20
2017-12-10T07:50:52.932Z,-4.10
2017-12-10T07:53:20.462Z,-4.20
2017-12-10T07:55:48.002Z,-4.30
2017-12-10T07:58:16.290Z,-4.40
2017-12-10T08:00:43.798Z,-4.40
2017-12-10T08:03:12.039Z,-4.20
2017-12-10T08:05:39.545Z,-4.20
2017-12-10T08:08:07.806Z,-4.10
2017-12-10T08:10:35.311Z,-4.10
2017-12-10T08:13:03.568Z,-4.00
2017-12-10T08:15:31.832Z,-4.00
2017-12-10T08:18:00.137Z,-4.00
2017-12-10T08:20:27.615Z,-4.00
2017-12-10T08:22:55.124Z,-4.00
2017-12-10T08:25:23.374Z,-4.00
2017-12-10T08:27:50.858Z,-4.00
2017-12-10T08:30:19.131Z,-4.00
2017-12-10T08:32:47.390Z,-2.70
2017-12-10T08:35:16.171Z,-2.70
2017-12-10T08:37:43.639Z,-1.50
2017-12-10T08:40:11.948Z,-1.00
2017-12-10T08:42:40.201Z,-2.80
2017-12-10T08:45:07.666Z,-2.80
2017-12-10T08:47:35.942Z,-3.30
2017-12-10T08:50:04.789Z,-3.30
2017-12-10T08:52:32.265Z,-3.30
2017-12-10T08:54:59.763Z,-3.50
2017-12-10T08:57:28.030Z,-3.60
2017-12-10T08:59:56.332Z,-3.60
2017-12-10T09:02:23.795Z,-3.60
2017-12-10T09:04:51.272Z,-3.50
2017-12-10T09:07:18.767Z,-3.40
2017-12-10T09:09:46.253Z,-3.40
2017-12-10T09:12:13.780Z,-3.50
2017-12-10T09:14:42.055Z,-3.60
2017-12-10T09:17:09.541Z,-3.60
2017-12-10T09:19:37.830Z,-3.60
2017-12-10T09:22:06.138Z,-3.60
2017-12-10T09:24:33.650Z,-3.60
2017-12-10T09:27:01.970Z,-3.60
2017-12-10T09:29:29.476Z,-3.60
2017-12-10T09:31:56.974Z,-3.60
2017-12-10T09:34:24.423Z,-3.70
2017-12-10T09:36:51.920Z,-3.80
2017-12-10T09:39:20.606Z,-3.70
2017-12-10T09:41:48.074Z,-3.70
2017-12-10T09:44:15.597Z,-3.70
2017-12-10T09:46:43.296Z,-3.70
2017-12-10T09:49:10.814Z,-3.60
2017-12-10T09:51:38.304Z,-3.60
2017-12-10T09:54:05.775Z,-3.50
2017-12-10T09:56:33.270Z,-3.50
2017-12-10T09:59:01.505Z,-3.40
2017-12-10T10:01:29.047Z,-3.40
2017-12-10T10:03:56.503Z,-3.40
2017-12-10T10:06:23.992Z,-3.40
2017-12-10T10:08:51.487Z,-3.40
2017-12-10T10:11:19.772Z,-3.40
2017-12-10T10:13:48.061Z,-3.40
2017-12-10T10:16:15.549Z,-3.40
2017-12-10T10:18:43.042Z,-3.40
2017-12-10T10:21:11.472Z,-3.40
2017-12-10T10:23:38.951Z,-3.40
2017-12-10T10:26:06.482Z,-3.50
2017-12-10T10:28:33.980Z,-3.50
2017-12-10T10:31:01.476Z,-3.50
2017-12-10T10:33:29.763Z,-3.70
2017-12-10T10:35:57.273Z,-3.70
2017-12-10T10:38:24.784Z,-3.80
2017-12-10T10:40:52.253Z,-3.80
2017-12-10T10:43:19.759Z,-3.80
2017-12-10T10:45:48.127Z,-4.00
2017-12-10T10:48:16.340Z,-4.00
2017-12-10T10:50:44.590Z,-3.90
2017-12-10T10:53:12.075Z,-4.00
2017-12-10T10:55:40.369Z,-4.00
2017-12-10T10:58:07.872Z,-4.00
2017-12-10T11:00:36.800Z,-3.90
2017-12-10T11:03:05.152Z,-4.10
2017-12-10T11:05:32.611Z,-4.10
2017-12-10T11:08:00.098Z,-4.00
2017-12-10T11:10:28.364Z,-4.20
2017-12-10T11:12:58.779Z,-4.10
2017-12-10T11:15:27.060Z,-4.00
2017-12-10T11:17:54.869Z,-4.00
2017-12-10T11:20:22.372Z,-4.00
2017-12-10T11:22:49.862Z,-4.00
2017-12-10T11:25:18.119Z,-4.20
2017-12-10T11:27:45.599Z,-4.20
2017-12-10T11:30:13.858Z,-4.10
2017-12-10T11:32:41.332Z,-4.10
2017-12-10T11:35:09.608Z,-4.10
2017-12-10T11:37:39.530Z,-4.10
2017-12-10T11:40:07.787Z,-4.00
2017-12-10T11:42:36.048Z,-4.00
2017-12-10T11:45:05.069Z,-4.00
2017-12-10T11:47:33.286Z,-4.00
2017-12-10T11:50:00.762Z,-4.00
2017-12-10T11:52:28.253Z,-4.00
2017-12-10T11:54:55.716Z,-4.00
2017-12-10T11:57:23.979Z,-3.90
2017-12-10T11:59:51.563Z,-3.90
2017-12-10T12:02:19.788Z,-3.90
2017-12-10T12:04:47.311Z,-3.90
2017-12-10T12:07:14.780Z,-3.80
2017-12-10T12:09:42.294Z,-3.70
2017-12-10T12:12:09.772Z,-3.70
2017-12-10T12:14:38.052Z,-3.70
2017-12-10T12:17:06.290Z,-3.60
2017-12-10T12:19:33.779Z,-3.70
2017-12-10T12:22:02.070Z,-3.50
2017-12-10T12:24:29.570Z,-3.50
2017-12-10T12:26:57.075Z,-3.50
2017-12-10T12:29:26.087Z,-3.40
2017-12-10T12:31:53.619Z,-3.40
2017-12-10T12:34:21.114Z,-3.30
2017-12-10T12:36:48.627Z,-3.40
2017-12-10T12:39:16.871Z,-3.40
2017-12-10T12:41:44.725Z,-3.50
2017-12-10T12:44:12.218Z,-3.40
2017-12-10T12:46:39.711Z,-3.40
2017-12-10T12:49:07.961Z,-3.40
2017-12-10T12:51:35.473Z,-3.40
2017-12-10T12:54:02.991Z,-3.40
2017-12-10T12:56:31.230Z,-3.40
2017-12-10T12:58:58.733Z,-3.40
2017-12-10T13:01:27.733Z,-3.30
2017-12-10T13:03:56.011Z,-3.30
2017-12-10T13:06:24.232Z,-3.40
2017-12-10T13:08:51.749Z,-3.40
2017-12-10T13:11:19.994Z,-3.30
2017-12-10T13:13:47.492Z,-3.30
2017-12-10T13:16:15.818Z,-3.20
2017-12-10T13:18:43.245Z,-3.30
2017-12-10T13:21:10.830Z,-3.30
2017-12-10T13:23:38.262Z,-3.30
2017-12-10T13:26:05.732Z,-3.30
2017-12-10T13:28:33.228Z,-3.20
2017-12-10T13:31:00.734Z,-3.20
2017-12-10T13:33:28.234Z,-3.30
2017-12-10T13:35:55.721Z,-3.30
2017-12-10T13:38:24.016Z,-3.20
2017-12-10T13:40:52.262Z,-3.20
2017-12-10T13:43:19.746Z,-3.20
2017-12-10T13:45:48.019Z,-3.20
2017-12-10T13:48:16.252Z,-3.20
2017-12-10T13:50:43.750Z,-3.20
2017-12-10T13:53:12.830Z,-3.20
2017-12-10T13:55:40.339Z,-3.20
2017-12-10T13:58:07.815Z,-3.10
2017-12-10T14:00:35.279Z,-3.10
2017-12-10T14:03:02.804Z,-3.10
2017-12-10T14:05:30.299Z,-3.20
2017-12-10T14:07:57.763Z,-3.10
2017-12-10T14:10:25.280Z,-3.10
2017-12-10T14:12:52.761Z,-3.10
2017-12-10T14:15:20.278Z,-3.00
2017-12-10T14:17:48.527Z,-2.80
2017-12-10T14:20:19.345Z,-2.90
2017-12-10T14:22:48.455Z,-2.80
2017-12-10T14:25:15.919Z,-2.80
2017-12-10T14:27:43.429Z,-2.80
2017-12-10T14:30:10.942Z,-2.80
2017-12-10T14:32:38.436Z,-2.80
2017-12-10T14:35:05.908Z,-2.70
2017-12-10T14:37:33.381Z,-2.70
2017-12-10T14:40:00.880Z,-2.50
2017-12-10T14:42:28.348Z,-2.50
2017-12-10T14:44:56.739Z,-2.40
2017-12-10T14:47:24.227Z,-2.40
2017-12-10T14:49:51.709Z,-2.40
2017-12-10T14:52:19.221Z,-2.30
2017-12-10T14:54:47.463Z,-2.10
2017-12-10T14:57:14.972Z,-2.10
2017-12-10T14:59:42.530Z,-2.00
2017-12-10T15:02:10.016Z,-2.00
2017-12-10T15:04:37.518Z,-2.00
2017-12-10T15:07:05.792Z,-1.60
2017-12-10T15:09:34.106Z,-1.40
2017-12-10T15:12:01.577Z,-1.50
2017-12-10T15:14:29.060Z,-1.20
2017-12-10T15:16:56.546Z,-0.90
2017-12-10T15:19:24.829Z,-0.40
2017-12-10T15:21:53.140Z,-0.30
2017-12-10T15:24:20.620Z,-0.30
2017-12-10T15:26:48.124Z,-0.20
2017-12-10T15:29:16.388Z,-0.10
2017-12-10T15:31:43.840Z,-0.10
2017-12-10T15:34:11.353Z,0.00
2017-12-10T15:36:38.830Z,0.10
2017-12-10T15:39:06.297Z,0.10
2017-12-10T15:41:33.821Z,0.20
2017-12-10T15:44:01.312Z,0.20
2017-12-10T15:46:28.809Z,0.20
2017-12-10T15:48:57.051Z,0.60
2017-12-10T15:51:24.511Z,0.50
2017-12-10T15:53:52.026Z,0.70
2017-12-10T15:56:19.500Z,0.70
2017-12-10T15:58:47.022Z,0.80
2017-12-10T16:01:15.299Z,0.90
2017-12-10T16:03:43.528Z,0.90
2017-12-10T16:06:10.995Z,0.90
2017-12-10T16:08:38.500Z,0.90
2017-12-10T16:11:06.003Z,0.90
2017-12-10T16:13:33.480Z,1.00
2017-12-10T16:16:00.963Z,1.10
2017-12-10T16:18:29.222Z,1.10
2017-12-10T16:20:56.687Z,1.10
2017-12-10T16:23:24.956Z,1.30
2017-12-10T16:25:52.446Z,1.20
2017-12-10T16:28:20.703Z,1.30
2017-12-10T16:30:48.996Z,1.40
2017-12-10T16:33:17.228Z,1.40
2017-12-10T16:35:44.755Z,1.40
2017-12-10T16:38:12.264Z,1.40
2017-12-10T16:40:39.739Z,1.50
2017-12-10T16:43:08.013Z,1.50
2017-12-10T16:45:36.264Z,1.60
2017-12-10T16:48:03.790Z,1.60
2017-12-10T16:50:31.274Z,1.70
2017-12-10T16:52:58.758Z,1.60
2017-12-10T16:55:27.750Z,1.70
2017-12-10T16:57:55.224Z,1.70
2017-12-10T17:00:23.488Z,1.70
2017-12-10T17:02:51.732Z,2.00
2017-12-10T17:05:19.290Z,1.90
2017-12-10T17:07:46.732Z,2.00
2017-12-10T17:10:15.432Z,2.20
2017-12-10T17:12:42.947Z,2.10
2017-12-10T17:15:11.190Z,1.90
2017-12-10T17:17:38.644Z,1.90
2017-12-10T17:20:06.155Z,1.90
2017-12-10T17:22:33.677Z,1.90
2017-12-10T17:25:01.153Z,1.90
2017-12-10T17:27:29.407Z,2.00
2017-12-10T17:29:56.887Z,2.00
2017-12-10T17:32:25.123Z,2.20
2017-12-10T17:34:53.741Z,2.20
2017-12-10T17:37:21.975Z,2.20
2017-12-10T17:39:49.495Z,2.20
2017-12-10T17:42:17.022Z,2.30
2017-12-10T17:44:44.524Z,2.20
2017-12-10T17:47:12.021Z,2.10
2017-12-10T17:49:39.476Z,2.20
2017-12-10T17:52:07.939Z,2.20
2017-12-10T17:54:35.409Z,2.30
2017-12-10T17:57:02.897Z,2.30
2017-12-10T17:59:31.287Z,2.30
2017-12-10T18:02:00.421Z,2.30
2017-12-10T18:04:28.185Z,2.30
2017-12-10T18:06:56.553Z,2.50
2017-12-10T18:09:24.381Z,2.50
2017-12-10T18:11:52.767Z,2.60
2017-12-10T18:14:20.262Z,2.80
2017-12-10T18:16:47.759Z,2.60
2017-12-10T18:19:15.987Z,2.70
2017-12-10T18:21:45.874Z,2.60
2017-12-10T18:24:14.107Z,2.60
2017-12-10T18:26:41.601Z,2.90
2017-12-10T18:29:09.114Z,2.90
2017-12-10T18:31:36.591Z,3.00
2017-12-10T18:34:04.300Z,3.20
2017-12-10T18:36:32.567Z,3.00
2017-12-10T18:39:01.456Z,2.90
2017-12-10T18:41:28.982Z,3.10
2017-12-10T18:43:56.467Z,3.00
2017-12-10T18:46:23.951Z,3.20
2017-12-10T18:48:52.223Z,3.20
2017-12-10T18:51:20.464Z,3.10
2017-12-10T18:53:47.926Z,3.00
2017-12-10T18:56:15.423Z,3.40
2017-12-10T18:58:43.689Z,3.40
2017-12-10T19:01:13.140Z,3.50
2017-12-10T19:03:41.258Z,3.40
2017-12-10T19:06:09.487Z,3.70
2017-12-10T19:08:37.358Z,3.60
2017-12-10T19:11:04.868Z,3.60
2017-12-10T19:13:32.919Z,3.50
2017-12-10T19:16:00.387Z,3.40
2017-12-10T19:18:27.904Z,3.30
2017-12-10T19:20:55.443Z,3.30
2017-12-10T19:23:23.690Z,3.20
2017-12-10T19:25:51.168Z,3.20
2017-12-10T19:28:19.403Z,3.40
2017-12-10T19:30:46.931Z,3.40
2017-12-10T19:33:14.407Z,3.40
2017-12-10T19:35:41.892Z,3.50
2017-12-10T19:38:09.376Z,3.40
2017-12-10T19:40:37.678Z,3.30
2017-12-10T19:43:05.180Z,3.30
2017-12-10T19:45:33.160Z,3.60
2017-12-10T19:48:00.835Z,3.50
2017-12-10T19:50:29.066Z,3.40
2017-12-10T19:52:56.550Z,3.40
2017-12-10T19:55:24.751Z,3.30
2017-12-10T19:57:53.017Z,3.30
2017-12-10T20:00:21.282Z,3.30
2017-12-10T20:02:48.759Z,3.30
2017-12-10T20:05:17.035Z,3.20
2017-12-10T20:07:45.278Z,3.10
2017-12-10T20:10:12.794Z,3.10
2017-12-10T20:12:41.734Z,3.20
2017-12-10T20:15:09.215Z,3.20
2017-12-10T20:17:36.731Z,3.30
2017-12-10T20:20:04.184Z,3.20
2017-12-10T20:22:32.390Z,3.10
2017-12-10T20:24:59.870Z,3.00
2017-12-10T20:27:27.352Z,3.10
2017-12-10T20:29:54.843Z,3.10
2017-12-10T20:32:22.954Z,3.00
2017-12-10T20:34:50.463Z,3.00
2017-12-10T20:37:17.941Z,3.00
2017-12-10T20:39:45.455Z,3.00
2017-12-10T20:42:14.308Z,3.00
2017-12-10T20:44:41.806Z,3.00
2017-12-10T20:47:09.383Z,2.90
2017-12-10T20:49:36.853Z,2.90
2017-12-10T20:52:04.365Z,2.90
2017-12-10T20:54:32.604Z,2.90
2017-12-10T20:57:00.957Z,2.90
2017-12-10T20:59:28.419Z,2.80
2017-12-10T21:01:55.899Z,2.90
2017-12-10T21:04:25.148Z,2.80
2017-12-10T21:06:54.262Z,2.90
2017-12-10T21:09:21.779Z,2.90
2017-12-10T21:11:49.481Z,2.90
2017-12-10T21:14:16.988Z,2.90
2017-12-10T21:16:44.488Z,2.80
2017-12-10T21:19:13.346Z,2.80
2017-12-10T21:21:40.830Z,2.80
2017-12-10T21:24:09.100Z,2.80
2017-12-10T21:26:37.374Z,2.80
2017-12-10T21:29:05.293Z,2.80
2017-12-10T21:31:32.861Z,2.70
2017-12-10T21:34:01.077Z,2.80
2017-12-10T21:36:28.548Z,2.80
2017-12-10T21:38:56.812Z,2.70
2017-12-10T21:41:25.900Z,2.70
2017-12-10T21:43:53.398Z,2.70
2017-12-10T21:46:20.882Z,2.70
2017-12-10T21:48:48.372Z,2.60
2017-12-10T21:51:15.899Z,2.70
2017-12-10T21:53:43.347Z,2.60
2017-12-10T21:56:10.871Z,2.60
2017-12-10T21:58:39.099Z,2.50
2017-12-10T22:01:06.592Z,2.40
2017-12-10T22:03:34.107Z,2.50
2017-12-10T22:06:02.112Z,2.40
2017-12-10T22:08:30.033Z,2.40
2017-12-10T22:10:57.523Z,2.40
2017-12-10T22:13:25.478Z,2.40
2017-12-10T22:15:53.012Z,2.40
2017-12-10T22:18:20.503Z,2.30
2017-12-10T22:20:47.991Z,2.40
2017-12-10T22:23:15.467Z,2.40
2017-12-10T22:25:43.696Z,2.40
2017-12-10T22:28:11.203Z,2.40
2017-12-10T22:30:39.421Z,2.40
2017-12-10T22:33:07.535Z,2.40
2017-12-10T22:35:35.654Z,2.40
2017-12-10T22:38:03.161Z,2.40
2017-12-10T22:40:30.638Z,2.30
2017-12-10T22:42:58.869Z,2.50
2017-12-10T22:45:26.373Z,2.50
2017-12-10T22:47:54.607Z,2.50
2017-12-10T22:50:22.088Z,2.50
2017-12-10T22:52:51.092Z,2.50
2017-12-10T22:55:18.574Z,2.50
2017-12-10T22:57:46.923Z,2.60
2017-12-10T23:00:14.375Z,2.50
2017-12-10T23:02:41.899Z,2.50
2017-12-10T23:05:09.367Z,2.50
2017-12-10T23:07:36.886Z,2.50
2017-12-10T23:10:04.407Z,2.60
2017-12-10T23:12:31.889Z,2.50
2017-12-10T23:15:11.166Z,2.60
2017-12-10T23:17:38.631Z,2.60
2017-12-10T23:20:07.046Z,2.70
2017-12-10T23:22:34.523Z,2.70
2017-12-10T23:25:02.742Z,2.80
2017-12-10T23:27:31.135Z,2.80
2017-12-10T23:29:58.603Z,2.80
2017-12-10T23:32:26.098Z,2.80
2017-12-10T23:34:54.329Z,2.80
2017-12-10T23:37:21.799Z,2.80
2017-12-10T23:39:49.326Z,2.80
2017-12-10T23:42:17.722Z,2.80
2017-12-10T23:44:45.196Z,2.90
2017-12-10T23:47:12.989Z,3.00
2017-12-10T23:49:41.378Z,3.00
2017-12-10T23:52:09.606Z,3.10
2017-12-10T23:54:38.219Z,3.10
2017-12-10T23:57:05.710Z,3.00
2017-12-10T23:59:34.764Z,3.10
